Time;durP1;ratioP1;P1;durP2;ratioP2;P2;SDS_P1;SDS_P2;PMS_P1;PMS_P2;Temp;Humidity;BMP_temperature;BMP_pressure;BME280_temperature;BME280_humidity;BME280_pressure;Samples;Min_cycle;Max_cycle;Signal;HPM_P1;HPM_P2
2021/06/19 00:02:06;;;;;;;;;;;15.00;92.40;;;;;;5035372;28;19936;-69
2021/06/19 00:04:31;;;;;;;;;;;14.90;92.70;;;;;;5035472;28;19941;-69
2021/06/19 00:06:57;;;;;;;;;;;14.90;92.40;;;;;;5035075;28;19996;-69
2021/06/19 00:09:23;;;;;;;;;;;14.80;92.30;;;;;;5034781;28;19935;-69
2021/06/19 00:11:48;;;;;;;;;;;14.70;92.50;;;;;;5035081;28;19924;-69
2021/06/19 00:14:14;;;;;;;;;;;14.70;92.60;;;;;;5035451;28;19927;-69
2021/06/19 00:16:39;;;;;;;;;;;14.70;92.70;;;;;;5034875;28;20300;-69
2021/06/19 00:19:05;;;;;;;;;;;14.70;92.70;;;;;;5034716;28;19932;-69
2021/06/19 00:21:30;;;;;;;;;;;14.80;92.50;;;;;;5033526;28;19922;-68
2021/06/19 00:23:56;;;;;;;;;;;14.80;92.30;;;;;;5033535;28;20345;-70
2021/06/19 00:26:21;;;;;;;;;;;14.70;92.40;;;;;;5034695;28;19930;-69
2021/06/19 00:28:47;;;;;;;;;;;14.70;92.30;;;;;;5034528;28;19928;-69
2021/06/19 00:31:12;;;;;;;;;;;14.70;92.40;;;;;;5034568;28;20281;-69
2021/06/19 00:33:38;;;;;;;;;;;14.70;92.40;;;;;;5034978;28;20056;-68
2021/06/19 00:36:03;;;;;;;;;;;14.70;92.40;;;;;;5034635;28;19923;-69
2021/06/19 00:38:29;;;;;;;;;;;14.70;92.30;;;;;;5034600;28;19927;-69
2021/06/19 00:40:54;;;;;;;;;;;14.70;92.40;;;;;;5032919;28;19928;-69
2021/06/19 00:43:20;;;;;;;;;;;14.70;92.30;;;;;;5034806;28;19947;-69
2021/06/19 00:45:45;;;;;;;;;;;14.70;92.10;;;;;;5034409;28;19933;-69
2021/06/19 00:48:11;;;;;;;;;;;14.70;92.30;;;;;;5034249;28;20430;-69
2021/06/19 00:50:37;;;;;;;;;;;14.70;92.30;;;;;;5033044;28;19965;-69
2021/06/19 00:53:03;;;;;;;;;;;14.60;92.50;;;;;;5049931;28;20341;-69
2021/06/19 00:55:28;;;;;;;;;;;14.50;92.70;;;;;;5033132;28;20348;-69
2021/06/19 00:57:54;;;;;;;;;;;14.60;92.60;;;;;;5033869;28;19932;-69
2021/06/19 01:00:20;;;;;;;;;;;14.60;92.50;;;;;;5032667;28;19923;-69
2021/06/19 01:02:45;;;;;;;;;;;14.50;92.50;;;;;;5034489;28;20026;-69
2021/06/19 01:05:11;;;;;;;;;;;14.50;92.50;;;;;;5034088;28;19921;-70
2021/06/19 01:07:36;;;;;;;;;;;14.50;92.60;;;;;;5032398;28;19924;-69
2021/06/19 01:10:03;;;;;;;;;;;14.50;92.50;;;;;;5033644;28;20051;-69
2021/06/19 01:12:28;;;;;;;;;;;14.50;92.50;;;;;;5033928;28;19926;-69
2021/06/19 01:14:54;;;;;;;;;;;14.40;92.70;;;;;;5032897;28;20415;-69
2021/06/19 01:17:20;;;;;;;;;;;14.50;92.70;;;;;;5033744;28;20412;-69
2021/06/19 01:19:46;;;;;;;;;;;14.50;92.70;;;;;;5032413;28;19976;-69
2021/06/19 01:22:11;;;;;;;;;;;14.50;92.50;;;;;;5033494;28;20374;-69
2021/06/19 01:24:37;;;;;;;;;;;14.50;92.50;;;;;;5032697;28;20000;-69
2021/06/19 01:27:03;;;;;;;;;;;14.50;92.40;;;;;;5032343;28;19931;-69
2021/06/19 01:29:28;;;;;;;;;;;14.50;92.30;;;;;;5015562;28;19925;-68
2021/06/19 01:31:54;;;;;;;;;;;14.40;92.30;;;;;;5033467;28;19925;-69
2021/06/19 01:34:19;;;;;;;;;;;14.40;92.40;;;;;;5033673;28;20276;-69
2021/06/19 01:36:45;;;;;;;;;;;14.30;92.60;;;;;;5032146;28;19937;-69
2021/06/19 01:39:10;;;;;;;;;;;14.20;92.80;;;;;;5033088;28;19923;-69
2021/06/19 01:41:36;;;;;;;;;;;14.20;92.80;;;;;;5033438;28;19936;-68
2021/06/19 01:44:04;;;;;;;;;;;14.20;92.80;;;;;;5033376;28;20406;-69
2021/06/19 01:46:29;;;;;;;;;;;14.00;93.00;;;;;;5032996;28;19921;-69
2021/06/19 01:48:55;;;;;;;;;;;14.00;93.20;;;;;;5031882;28;20481;-69
2021/06/19 01:51:20;;;;;;;;;;;14.00;93.00;;;;;;5032068;28;19953;-68
2021/06/19 01:53:49;;;;;;;;;;;14.00;93.10;;;;;;5033365;28;20386;-69
2021/06/19 01:56:15;;;;;;;;;;;14.10;93.10;;;;;;5033023;28;20412;-69
2021/06/19 01:58:40;;;;;;;;;;;14.20;92.90;;;;;;5032659;28;20023;-69
2021/06/19 02:01:06;;;;;;;;;;;14.20;92.80;;;;;;5031648;28;20027;-69
2021/06/19 02:03:32;;;;;;;;;;;14.20;92.80;;;;;;5032068;28;20313;-69
2021/06/19 02:05:57;;;;;;;;;;;14.10;93.00;;;;;;5031724;28;19933;-69
2021/06/19 02:08:23;;;;;;;;;;;14.10;93.00;;;;;;5032773;28;19921;-69
2021/06/19 02:10:49;;;;;;;;;;;14.00;93.10;;;;;;5031906;28;20349;-69
2021/06/19 02:13:14;;;;;;;;;;;14.00;93.20;;;;;;5031874;28;19927;-69
2021/06/19 02:15:41;;;;;;;;;;;14.10;93.10;;;;;;5032862;28;19975;-69
2021/06/19 02:18:06;;;;;;;;;;;14.20;92.90;;;;;;5032676;28;20378;-69
2021/06/19 02:20:32;;;;;;;;;;;14.20;92.70;;;;;;5031265;28;20005;-69
2021/06/19 02:22:57;;;;;;;;;;;14.20;92.70;;;;;;5032435;28;19969;-69
2021/06/19 02:25:24;;;;;;;;;;;14.20;92.60;;;;;;5032848;28;19922;-69
2021/06/19 02:27:52;;;;;;;;;;;14.10;92.90;;;;;;5032555;28;20380;-69
2021/06/19 02:30:19;;;;;;;;;;;14.00;92.70;;;;;;5032334;28;19934;-69
2021/06/19 02:32:44;;;;;;;;;;;13.90;92.90;;;;;;5032539;28;20398;-69
2021/06/19 02:35:10;;;;;;;;;;;14.00;93.00;;;;;;5032391;28;19923;-69
2021/06/19 02:37:35;;;;;;;;;;;14.00;92.90;;;;;;5031249;28;19967;-69
2021/06/19 02:40:01;;;;;;;;;;;14.00;92.90;;;;;;5030837;28;19927;-69
2021/06/19 02:42:26;;;;;;;;;;;14.00;92.70;;;;;;5032491;28;20427;-69
2021/06/19 02:44:52;;;;;;;;;;;14.00;93.10;;;;;;5047815;28;19945;-69
2021/06/19 02:47:17;;;;;;;;;;;14.00;92.80;;;;;;5032115;28;19933;-69
2021/06/19 02:49:43;;;;;;;;;;;14.00;92.90;;;;;;5032201;28;20368;-69
2021/06/19 02:52:09;;;;;;;;;;;14.00;92.80;;;;;;5032271;28;19976;-69
2021/06/19 02:54:40;;;;;;;;;;;14.00;93.00;;;;;;5031406;28;19924;-69
2021/06/19 02:57:06;;;;;;;;;;;13.90;92.80;;;;;;5032225;28;20425;-69
2021/06/19 02:59:31;;;;;;;;;;;13.90;93.00;;;;;;5032352;28;19936;-69
2021/06/19 03:01:57;;;;;;;;;;;13.90;93.10;;;;;;5032117;28;19932;-68
2021/06/19 03:04:22;;;;;;;;;;;13.90;93.00;;;;;;5032411;28;19949;-69
2021/06/19 03:06:48;;;;;;;;;;;13.90;93.10;;;;;;5032175;28;19972;-69
2021/06/19 03:09:13;;;;;;;;;;;13.90;93.20;;;;;;5032055;28;20410;-69
2021/06/19 03:11:39;;;;;;;;;;;13.80;93.30;;;;;;5047653;28;20006;-69
2021/06/19 03:14:04;;;;;;;;;;;13.90;93.20;;;;;;5032359;28;19924;-69
2021/06/19 03:16:30;;;;;;;;;;;13.80;93.10;;;;;;5032066;28;19926;-69
2021/06/19 03:18:55;;;;;;;;;;;13.70;93.20;;;;;;5032001;28;19928;-69
2021/06/19 03:21:21;;;;;;;;;;;13.70;93.20;;;;;;5031765;28;19962;-69
2021/06/19 03:23:46;;;;;;;;;;;13.80;93.30;;;;;;5034475;28;20007;-69
2021/06/19 03:26:12;;;;;;;;;;;13.80;93.20;;;;;;5035900;28;19931;-69
2021/06/19 03:28:37;;;;;;;;;;;13.90;93.10;;;;;;5034596;28;19930;-70
2021/06/19 03:31:03;;;;;;;;;;;13.90;92.90;;;;;;5035568;28;20015;-69
2021/06/19 03:33:28;;;;;;;;;;;13.90;93.00;;;;;;5035811;28;19929;-69
2021/06/19 03:35:54;;;;;;;;;;;13.90;93.00;;;;;;5035659;28;20332;-69
2021/06/19 03:38:19;;;;;;;;;;;14.00;93.00;;;;;;5035563;28;19928;-68
2021/06/19 03:40:45;;;;;;;;;;;14.00;92.90;;;;;;5035024;28;19973;-69
2021/06/19 03:43:10;;;;;;;;;;;14.00;92.90;;;;;;5036265;28;20010;-69
2021/06/19 03:45:36;;;;;;;;;;;14.10;92.70;;;;;;5035398;28;19945;-69
2021/06/19 03:48:02;;;;;;;;;;;14.10;92.50;;;;;;5034234;28;20299;-68
2021/06/19 03:50:28;;;;;;;;;;;14.20;92.60;;;;;;5034040;28;19935;-69
2021/06/19 03:52:54;;;;;;;;;;;14.20;92.60;;;;;;5034217;28;19922;-69
2021/06/19 03:55:19;;;;;;;;;;;14.20;92.60;;;;;;5035374;28;19921;-69
2021/06/19 03:57:45;;;;;;;;;;;14.10;92.50;;;;;;5033943;28;19938;-69
2021/06/19 04:00:11;;;;;;;;;;;14.10;92.50;;;;;;5033911;28;19927;-69
2021/06/19 04:02:37;;;;;;;;;;;14.10;92.60;;;;;;5035235;28;19931;-69
2021/06/19 04:05:03;;;;;;;;;;;14.10;92.70;;;;;;5033979;28;19949;-69
2021/06/19 04:07:28;;;;;;;;;;;14.10;92.70;;;;;;5035089;28;20022;-69
2021/06/19 04:09:54;;;;;;;;;;;14.20;92.80;;;;;;5034701;28;19926;-68
2021/06/19 04:12:21;;;;;;;;;;;14.10;92.90;;;;;;5033823;28;19925;-68
2021/06/19 04:14:47;;;;;;;;;;;14.10;93.00;;;;;;5033957;28;19981;-69
2021/06/19 04:17:12;;;;;;;;;;;14.00;93.30;;;;;;5034618;28;19922;-69
2021/06/19 04:19:38;;;;;;;;;;;14.00;93.20;;;;;;5033405;28;19934;-68
2021/06/19 04:22:04;;;;;;;;;;;14.10;93.10;;;;;;5033399;28;20003;-69
2021/06/19 04:24:30;;;;;;;;;;;14.10;93.10;;;;;;5034920;28;19942;-69
2021/06/19 04:26:55;;;;;;;;;;;14.20;93.10;;;;;;5034584;28;19972;-69
2021/06/19 04:29:21;;;;;;;;;;;14.30;92.70;;;;;;5033384;28;20297;-69
2021/06/19 04:31:46;;;;;;;;;;;14.30;92.60;;;;;;5034576;28;20387;-69
2021/06/19 04:34:12;;;;;;;;;;;14.30;92.70;;;;;;5032904;28;19928;-69
2021/06/19 04:36:38;;;;;;;;;;;14.30;92.70;;;;;;5033249;28;19928;-69
2021/06/19 04:39:03;;;;;;;;;;;14.40;92.70;;;;;;5034426;28;19923;-69
2021/06/19 04:41:39;;;;;;;;;;;14.40;92.70;;;;;;5032977;28;19932;-69
2021/06/19 04:44:17;;;;;;;;;;;14.40;92.70;;;;;;5033148;28;19947;-69
2021/06/19 04:46:43;;;;;;;;;;;14.40;92.70;;;;;;5034130;28;19960;-69
2021/06/19 04:49:09;;;;;;;;;;;14.30;92.60;;;;;;5034227;28;19924;-69
2021/06/19 04:51:34;;;;;;;;;;;14.30;92.80;;;;;;5034151;28;20017;-69
2021/06/19 04:54:00;;;;;;;;;;;14.40;92.90;;;;;;5034464;28;20407;-69
2021/06/19 04:56:25;;;;;;;;;;;14.40;92.70;;;;;;5034064;28;19943;-69
2021/06/19 04:58:51;;;;;;;;;;;14.40;92.70;;;;;;5032869;28;19923;-69
2021/06/19 05:01:16;;;;;;;;;;;14.40;92.70;;;;;;5032999;28;19949;-69
2021/06/19 05:03:42;;;;;;;;;;;14.40;92.80;;;;;;5034276;28;19945;-69
2021/06/19 05:06:07;;;;;;;;;;;14.50;92.80;;;;;;5034215;28;19928;-69
2021/06/19 05:08:33;;;;;;;;;;;14.50;92.70;;;;;;5033766;28;19994;-69
2021/06/19 05:10:58;;;;;;;;;;;14.60;92.60;;;;;;5033413;28;19925;-69
2021/06/19 05:13:25;;;;;;;;;;;14.60;92.70;;;;;;5034080;28;20456;-69
2021/06/19 05:15:50;;;;;;;;;;;14.70;92.60;;;;;;5033725;28;19924;-69
2021/06/19 05:18:16;;;;;;;;;;;14.60;92.70;;;;;;5033588;28;20301;-69
2021/06/19 05:20:41;;;;;;;;;;;14.70;92.70;;;;;;5032266;28;20318;-69
2021/06/19 05:23:10;;;;;;;;;;;14.70;92.60;;;;;;5033512;28;20015;-69
2021/06/19 05:25:37;;;;;;;;;;;14.70;92.70;;;;;;5032521;28;19971;-69
2021/06/19 05:28:02;;;;;;;;;;;14.70;92.80;;;;;;5032298;28;20347;-69
2021/06/19 05:30:28;;;;;;;;;;;14.70;92.70;;;;;;5033300;28;19929;-69
2021/06/19 05:32:53;;;;;;;;;;;14.70;92.70;;;;;;5033584;28;19924;-68
2021/06/19 05:35:19;;;;;;;;;;;14.70;92.80;;;;;;5033281;28;19926;-69
2021/06/19 05:37:44;;;;;;;;;;;14.70;92.90;;;;;;5033351;28;19966;-69
2021/06/19 05:40:10;;;;;;;;;;;14.70;92.90;;;;;;5031787;28;19989;-69
2021/06/19 05:42:36;;;;;;;;;;;14.70;92.80;;;;;;5032210;28;20011;-69
2021/06/19 05:45:01;;;;;;;;;;;14.80;92.70;;;;;;5032657;28;19953;-69
2021/06/19 05:47:27;;;;;;;;;;;14.80;92.80;;;;;;5031718;28;19932;-69
2021/06/19 05:49:52;;;;;;;;;;;14.80;92.80;;;;;;5031842;28;19922;-69
2021/06/19 05:52:19;;;;;;;;;;;14.80;92.80;;;;;;5033170;28;19925;-69
2021/06/19 05:54:44;;;;;;;;;;;14.70;92.80;;;;;;5032245;28;19923;-69
2021/06/19 05:57:10;;;;;;;;;;;14.70;92.80;;;;;;5033045;28;20447;-69
2021/06/19 05:59:35;;;;;;;;;;;14.70;93.00;;;;;;5031593;28;19930;-68
2021/06/19 06:02:04;;;;;;;;;;;14.70;92.90;;;;;;5033067;28;20261;-69
2021/06/19 06:04:30;;;;;;;;;;;14.70;93.00;;;;;;5031995;28;20383;-69
2021/06/19 06:06:55;;;;;;;;;;;14.70;92.90;;;;;;5031950;28;20298;-69
2021/06/19 06:09:21;;;;;;;;;;;14.70;93.20;;;;;;5032607;28;19976;-69
2021/06/19 06:11:46;;;;;;;;;;;14.80;93.40;;;;;;5032719;28;20337;-69
2021/06/19 06:14:12;;;;;;;;;;;14.90;93.10;;;;;;5033072;28;20019;-69
2021/06/19 06:16:38;;;;;;;;;;;14.90;92.90;;;;;;5032995;28;19971;-69
2021/06/19 06:19:04;;;;;;;;;;;14.90;92.80;;;;;;5032551;28;20008;-68
2021/06/19 06:21:29;;;;;;;;;;;14.90;92.70;;;;;;5032551;28;20017;-69
2021/06/19 06:23:55;;;;;;;;;;;14.90;92.80;;;;;;5032553;28;20365;-69
2021/06/19 06:26:20;;;;;;;;;;;15.00;92.70;;;;;;5032576;28;20281;-69
2021/06/19 06:28:46;;;;;;;;;;;15.00;92.70;;;;;;5032446;28;19927;-69
2021/06/19 06:31:11;;;;;;;;;;;15.10;92.70;;;;;;5032500;28;19929;-69
2021/06/19 06:33:37;;;;;;;;;;;15.10;92.80;;;;;;5032936;28;20133;-69
2021/06/19 06:36:03;;;;;;;;;;;15.10;92.80;;;;;;5031431;28;20284;-69
2021/06/19 06:38:28;;;;;;;;;;;15.10;92.80;;;;;;5031062;28;19963;-69
2021/06/19 06:40:54;;;;;;;;;;;15.10;92.80;;;;;;5032149;28;19930;-69
2021/06/19 06:43:19;;;;;;;;;;;15.10;92.90;;;;;;5033014;28;20345;-69
2021/06/19 06:45:45;;;;;;;;;;;15.20;93.00;;;;;;5032462;28;19927;-69
2021/06/19 06:48:10;;;;;;;;;;;15.20;92.90;;;;;;5031151;28;20386;-68
2021/06/19 06:50:36;;;;;;;;;;;15.30;92.70;;;;;;5031243;28;19922;-69
2021/06/19 06:53:02;;;;;;;;;;;15.40;92.60;;;;;;5032704;28;19933;-69
2021/06/19 06:55:27;;;;;;;;;;;15.40;92.60;;;;;;5032543;28;20314;-69
2021/06/19 06:57:53;;;;;;;;;;;15.50;92.70;;;;;;5036153;28;19971;-69
2021/06/19 07:00:19;;;;;;;;;;;15.60;92.60;;;;;;5036441;28;19934;-69
2021/06/19 07:02:44;;;;;;;;;;;15.70;92.40;;;;;;5036519;28;19932;-69
2021/06/19 07:05:10;;;;;;;;;;;15.70;92.40;;;;;;5036440;28;19950;-69
2021/06/19 07:07:36;;;;;;;;;;;15.70;92.40;;;;;;5036118;28;19928;-69
2021/06/19 07:10:02;;;;;;;;;;;15.70;92.50;;;;;;5035008;28;19926;-69
2021/06/19 07:12:27;;;;;;;;;;;15.70;92.50;;;;;;5036269;28;19919;-69
2021/06/19 07:14:52;;;;;;;;;;;15.70;92.60;;;;;;5036366;28;19921;-69
2021/06/19 07:17:18;;;;;;;;;;;15.70;92.50;;;;;;5035964;28;19929;-69
2021/06/19 07:19:43;;;;;;;;;;;15.70;92.60;;;;;;5035731;28;19979;-69
2021/06/19 07:22:09;;;;;;;;;;;15.70;92.50;;;;;;5018062;28;19962;-69
2021/06/19 07:24:35;;;;;;;;;;;15.70;92.50;;;;;;5035101;28;19980;-69
2021/06/19 07:27:00;;;;;;;;;;;15.80;92.30;;;;;;5035763;28;20013;-69
2021/06/19 07:29:26;;;;;;;;;;;15.80;92.30;;;;;;5035668;28;19975;-69
2021/06/19 07:31:51;;;;;;;;;;;15.90;92.60;;;;;;5035764;28;20354;-69
2021/06/19 07:34:17;;;;;;;;;;;15.90;92.50;;;;;;5036062;28;19933;-69
2021/06/19 07:36:45;;;;;;;;;;;16.00;92.40;;;;;;5035673;28;19927;-69
2021/06/19 07:39:11;;;;;;;;;;;16.00;92.40;;;;;;5033995;28;19924;-69
2021/06/19 07:41:36;;;;;;;;;;;16.00;92.40;;;;;;5035536;28;19972;-69
2021/06/19 07:44:02;;;;;;;;;;;16.10;92.30;;;;;;5036030;28;19948;-69
2021/06/19 07:46:27;;;;;;;;;;;16.10;92.20;;;;;;5034024;28;19937;-69
2021/06/19 07:48:53;;;;;;;;;;;16.20;92.10;;;;;;5035278;28;19929;-69
2021/06/19 07:51:18;;;;;;;;;;;16.30;92.20;;;;;;5035237;28;19922;-69
2021/06/19 07:53:44;;;;;;;;;;;16.40;92.10;;;;;;5035827;28;19928;-69
2021/06/19 07:56:09;;;;;;;;;;;16.50;92.00;;;;;;5035311;28;19946;-69
2021/06/19 07:58:35;;;;;;;;;;;16.60;91.70;;;;;;5033825;28;20112;-69
2021/06/19 08:01:00;;;;;;;;;;;16.70;91.60;;;;;;5035019;28;20023;-69
2021/06/19 08:03:26;;;;;;;;;;;16.80;91.50;;;;;;5035602;28;20424;-69
2021/06/19 08:05:51;;;;;;;;;;;16.90;91.60;;;;;;5035282;28;20357;-69
2021/06/19 08:08:17;;;;;;;;;;;16.90;91.30;;;;;;5033066;28;20396;-69
2021/06/19 08:10:42;;;;;;;;;;;16.80;91.50;;;;;;5034724;28;19933;-69
2021/06/19 08:13:08;;;;;;;;;;;16.80;91.60;;;;;;5035315;28;20282;-69
2021/06/19 08:15:35;;;;;;;;;;;16.80;91.50;;;;;;5035183;28;20015;-69
2021/06/19 08:18:01;;;;;;;;;;;16.90;91.50;;;;;;5035115;28;19922;-70
2021/06/19 08:20:26;;;;;;;;;;;16.90;91.50;;;;;;5033582;28;19928;-69
2021/06/19 08:22:52;;;;;;;;;;;16.80;91.50;;;;;;5034859;28;20508;-69
2021/06/19 08:25:17;;;;;;;;;;;16.70;91.70;;;;;;5034979;28;19946;-69
2021/06/19 08:27:43;;;;;;;;;;;16.70;91.70;;;;;;5033461;28;19980;-69
2021/06/19 08:30:08;;;;;;;;;;;16.80;91.70;;;;;;5033426;28;19974;-69
2021/06/19 08:32:34;;;;;;;;;;;16.90;91.50;;;;;;5034918;28;19921;-69
2021/06/19 08:34:59;;;;;;;;;;;17.00;91.30;;;;;;5034656;28;19922;-69
2021/06/19 08:37:25;;;;;;;;;;;17.00;91.30;;;;;;5033341;28;19922;-69
2021/06/19 08:39:50;;;;;;;;;;;16.90;91.30;;;;;;5034227;28;19933;-69
2021/06/19 08:42:16;;;;;;;;;;;16.90;91.60;;;;;;5033511;28;19920;-69
2021/06/19 08:44:45;;;;;;;;;;;16.80;91.60;;;;;;5034755;28;19941;-69
2021/06/19 08:47:11;;;;;;;;;;;16.70;91.80;;;;;;5034065;28;19931;-69
2021/06/19 08:49:36;;;;;;;;;;;16.70;91.80;;;;;;5034306;28;19920;-69
2021/06/19 08:52:02;;;;;;;;;;;16.70;91.80;;;;;;5033177;28;20302;-69
2021/06/19 08:54:38;;;;;;;;;;;16.70;91.80;;;;;;5035223;28;20410;-69
2021/06/19 08:57:04;;;;;;;;;;;16.70;91.80;;;;;;5033186;28;19942;-69
2021/06/19 08:59:30;;;;;;;;;;;16.70;91.90;;;;;;5033986;28;20336;-69
2021/06/19 09:01:56;;;;;;;;;;;16.60;91.90;;;;;;5033877;28;19923;-69
2021/06/19 09:04:21;;;;;;;;;;;16.60;92.00;;;;;;5034081;28;20420;-69
2021/06/19 09:06:47;;;;;;;;;;;16.60;92.00;;;;;;5033263;28;20029;-69
2021/06/19 09:09:15;;;;;;;;;;;16.70;92.10;;;;;;5033645;28;19926;-70
2021/06/19 09:11:41;;;;;;;;;;;16.70;91.90;;;;;;5032642;28;20421;-69
2021/06/19 09:14:07;;;;;;;;;;;16.80;91.90;;;;;;5035039;28;19926;-74
2021/06/19 09:16:33;;;;;;;;;;;16.80;91.90;;;;;;5033831;28;19924;-71
2021/06/19 09:18:59;;;;;;;;;;;16.90;91.90;;;;;;5033638;28;19933;-71
2021/06/19 09:21:32;;;;;;;;;;;17.00;91.80;;;;;;5034751;28;20396;-75
2021/06/19 09:23:57;;;;;;;;;;;17.10;91.60;;;;;;5034778;28;19960;-71
2021/06/19 09:26:31;;;;;;;;;;;17.10;91.40;;;;;;5035572;28;20386;-77
2021/06/19 09:28:59;;;;;;;;;;;17.20;91.30;;;;;;5032483;28;20378;-75
2021/06/19 09:31:41;;;;;;;;;;;17.20;91.30;;;;;;5034234;28;20024;-69
2021/06/19 09:34:17;;;;;;;;;;;17.20;91.20;;;;;;5033185;28;19931;-70
2021/06/19 09:36:43;;;;;;;;;;;17.20;91.30;;;;;;5033629;28;19929;-71
2021/06/19 09:39:09;;;;;;;;;;;17.20;91.30;;;;;;5032916;28;20382;-71
2021/06/19 09:41:39;;;;;;;;;;;17.30;91.40;;;;;;5034083;28;20019;-70
2021/06/19 09:44:04;;;;;;;;;;;17.40;91.30;;;;;;5032313;28;19946;-71
2021/06/19 09:46:30;;;;;;;;;;;17.40;91.20;;;;;;5033848;28;19930;-72
2021/06/19 09:48:55;;;;;;;;;;;17.40;91.20;;;;;;5034119;28;19967;-73
2021/06/19 09:51:23;;;;;;;;;;;17.40;91.40;;;;;;5032002;28;20402;-69
2021/06/19 09:53:49;;;;;;;;;;;17.40;91.30;;;;;;5034248;28;19930;-69
2021/06/19 09:56:16;;;;;;;;;;;17.40;91.20;;;;;;5034239;28;20385;-70
2021/06/19 09:58:45;;;;;;;;;;;17.40;91.10;;;;;;5033890;28;19924;-69
2021/06/19 10:01:11;;;;;;;;;;;17.40;91.30;;;;;;5034256;28;19933;-69
2021/06/19 10:03:49;;;;;;;;;;;17.50;91.20;;;;;;5032823;28;20036;-69
2021/06/19 10:06:15;;;;;;;;;;;17.50;91.20;;;;;;5034082;28;19954;-70
2021/06/19 10:08:42;;;;;;;;;;;17.50;91.30;;;;;;5033851;28;19924;-68
2021/06/19 10:11:08;;;;;;;;;;;17.60;91.10;;;;;;5032463;28;19930;-69
2021/06/19 10:13:34;;;;;;;;;;;17.60;90.90;;;;;;5032756;28;19925;-70
2021/06/19 10:16:00;;;;;;;;;;;17.70;91.00;;;;;;5032555;28;19923;-69
2021/06/19 10:18:25;;;;;;;;;;;17.70;90.70;;;;;;5032791;28;19927;-69
2021/06/19 10:20:51;;;;;;;;;;;17.80;90.60;;;;;;5032356;28;19923;-69
2021/06/19 10:23:16;;;;;;;;;;;17.90;90.70;;;;;;5032114;28;20431;-69
2021/06/19 10:25:46;;;;;;;;;;;18.00;90.50;;;;;;5032542;28;19923;-70
2021/06/19 10:28:11;;;;;;;;;;;18.20;90.50;;;;;;5032509;28;19923;-69
2021/06/19 10:30:37;;;;;;;;;;;18.30;90.20;;;;;;5031938;28;19927;-69
2021/06/19 10:33:02;;;;;;;;;;;18.50;90.20;;;;;;5032214;28;19973;-69
2021/06/19 10:35:47;;;;;;;;;;;18.50;90.10;;;;;;5032340;28;20348;-69
2021/06/19 10:38:18;;;;;;;;;;;18.50;90.20;;;;;;5032634;28;19927;-69
2021/06/19 10:40:49;;;;;;;;;;;18.50;90.20;;;;;;5032152;28;19935;-69
2021/06/19 10:43:18;;;;;;;;;;;18.40;90.30;;;;;;5033582;28;19929;-70
2021/06/19 10:45:45;;;;;;;;;;;18.40;90.20;;;;;;5033222;28;19929;-69
2021/06/19 10:48:12;;;;;;;;;;;18.40;90.50;;;;;;5033565;28;19968;-69
2021/06/19 10:50:42;;;;;;;;;;;18.40;90.60;;;;;;5032629;28;19925;-69
2021/06/19 10:53:10;;;;;;;;;;;18.40;90.50;;;;;;5032439;28;19922;-69
2021/06/19 10:55:53;;;;;;;;;;;18.30;90.80;;;;;;5033428;28;20542;-69
2021/06/19 10:58:22;;;;;;;;;;;18.20;90.80;;;;;;5032219;28;19958;-69
2021/06/19 11:00:47;;;;;;;;;;;18.10;91.00;;;;;;5033406;28;19931;-69
2021/06/19 11:03:13;;;;;;;;;;;18.10;91.00;;;;;;5033230;28;19924;-69
2021/06/19 11:05:39;;;;;;;;;;;18.00;91.00;;;;;;5032169;28;19930;-69
2021/06/19 11:08:04;;;;;;;;;;;18.00;91.00;;;;;;5033271;28;19976;-69
2021/06/19 11:10:39;;;;;;;;;;;18.00;91.20;;;;;;5033196;28;19965;-69
2021/06/19 11:13:23;;;;;;;;;;;18.00;91.20;;;;;;5033243;28;20294;-69
2021/06/19 11:15:48;;;;;;;;;;;18.00;91.20;;;;;;5033444;28;19981;-69
2021/06/19 11:18:25;;;;;;;;;;;18.10;91.20;;;;;;5032907;28;19926;-69
2021/06/19 11:21:07;;;;;;;;;;;18.10;91.10;;;;;;5030965;28;19969;-69
2021/06/19 11:23:52;;;;;;;;;;;18.10;91.30;;;;;;5033115;28;19957;-70
2021/06/19 11:26:36;;;;;;;;;;;18.00;91.70;;;;;;5033098;28;19978;-69
2021/06/19 11:29:21;;;;;;;;;;;18.10;91.90;;;;;;5033168;28;19924;-69
2021/06/19 11:31:48;;;;;;;;;;;18.10;91.50;;;;;;5032670;28;19927;-69
2021/06/19 11:34:32;;;;;;;;;;;18.10;91.40;;;;;;5032776;28;19925;-69
2021/06/19 11:36:57;;;;;;;;;;;18.10;91.40;;;;;;5031997;28;19928;-69
2021/06/19 11:39:23;;;;;;;;;;;18.20;91.50;;;;;;5031799;28;20264;-69
2021/06/19 11:41:49;;;;;;;;;;;18.10;91.60;;;;;;5031870;28;19981;-69
2021/06/19 11:44:15;;;;;;;;;;;18.10;91.70;;;;;;5035681;28;19952;-69
2021/06/19 11:46:48;;;;;;;;;;;18.10;91.70;;;;;;5036374;28;19931;-69
2021/06/19 11:49:13;;;;;;;;;;;18.10;91.60;;;;;;5035479;28;19923;-69
2021/06/19 11:51:39;;;;;;;;;;;18.10;91.60;;;;;;5036566;28;19922;-70
2021/06/19 11:54:06;;;;;;;;;;;18.10;91.60;;;;;;5036488;28;19929;-69
2021/06/19 11:56:31;;;;;;;;;;;18.20;91.50;;;;;;5035158;28;20477;-69
2021/06/19 11:58:57;;;;;;;;;;;18.20;91.60;;;;;;5036178;28;19921;-70
2021/06/19 12:01:25;;;;;;;;;;;18.30;91.70;;;;;;5036405;28;19948;-69
2021/06/19 12:03:51;;;;;;;;;;;18.40;91.60;;;;;;5036263;28;20000;-69
2021/06/19 12:06:17;;;;;;;;;;;18.40;91.50;;;;;;5036290;28;19923;-69
2021/06/19 12:08:43;;;;;;;;;;;18.40;91.60;;;;;;5036155;28;19932;-69
2021/06/19 12:11:08;;;;;;;;;;;18.40;91.60;;;;;;5034671;28;20038;-70
2021/06/19 12:13:35;;;;;;;;;;;18.30;91.90;;;;;;5036125;28;20458;-69
2021/06/19 12:16:01;;;;;;;;;;;18.30;91.70;;;;;;5036074;28;19921;-69
2021/06/19 12:18:27;;;;;;;;;;;18.20;92.20;;;;;;5036054;28;19926;-69
2021/06/19 12:20:59;;;;;;;;;;;18.10;91.90;;;;;;5035865;28;19921;-69
2021/06/19 12:23:31;;;;;;;;;;;18.10;92.30;;;;;;5035480;28;19957;-70
2021/06/19 12:26:04;;;;;;;;;;;18.00;92.70;;;;;;5036497;28;19969;-69
2021/06/19 12:28:29;;;;;;;;;;;18.10;92.70;;;;;;5035184;28;20290;-70
2021/06/19 12:30:58;;;;;;;;;;;18.10;92.30;;;;;;5034652;28;19929;-70
2021/06/19 12:33:24;;;;;;;;;;;18.10;92.60;;;;;;5035999;28;19966;-69
2021/06/19 12:35:49;;;;;;;;;;;18.10;92.30;;;;;;5035106;28;20375;-69
2021/06/19 12:38:17;;;;;;;;;;;18.10;92.20;;;;;;5034541;28;19921;-70
2021/06/19 12:40:43;;;;;;;;;;;18.20;92.20;;;;;;5034723;28;20009;-69
2021/06/19 12:43:09;;;;;;;;;;;18.10;92.80;;;;;;5034586;28;20285;-69
2021/06/19 12:45:36;;;;;;;;;;;18.10;92.90;;;;;;5034024;28;20437;-70
2021/06/19 12:48:04;;;;;;;;;;;18.00;93.00;;;;;;5034257;28;19946;-70
2021/06/19 12:50:29;;;;;;;;;;;18.10;92.70;;;;;;5032911;28;20406;-69
2021/06/19 12:53:08;;;;;;;;;;;18.10;92.60;;;;;;5034415;28;19971;-69
2021/06/19 12:55:34;;;;;;;;;;;18.10;92.60;;;;;;5032847;28;19961;-69
2021/06/19 12:58:07;;;;;;;;;;;18.00;92.90;;;;;;5033837;28;20313;-69
2021/06/19 13:00:46;;;;;;;;;;;17.70;94.00;;;;;;5034032;28;19925;-69
2021/06/19 13:03:12;;;;;;;;;;;17.50;94.50;;;;;;5034254;28;20019;-70
2021/06/19 13:05:58;;;;;;;;;;;17.40;95.20;;;;;;5032950;28;19996;-69
2021/06/19 13:08:27;;;;;;;;;;;17.20;95.90;;;;;;5033685;28;20076;-69
2021/06/19 13:10:53;;;;;;;;;;;17.00;95.70;;;;;;5033608;28;19924;-69
2021/06/19 13:13:48;;;;;;;;;;;17.00;96.10;;;;;;5034061;28;19934;-69
2021/06/19 13:16:14;;;;;;;;;;;16.90;96.40;;;;;;5032870;28;19928;-69
2021/06/19 13:18:39;;;;;;;;;;;16.90;95.90;;;;;;5033784;28;19948;-69
2021/06/19 13:21:12;;;;;;;;;;;16.90;96.20;;;;;;5032356;28;19970;-69
2021/06/19 13:23:37;;;;;;;;;;;16.90;96.50;;;;;;5032341;28;20004;-69
2021/06/19 13:26:04;;;;;;;;;;;16.90;95.80;;;;;;5033685;28;19923;-69
2021/06/19 13:28:36;;;;;;;;;;;16.90;96.20;;;;;;5032378;28;19925;-68
2021/06/19 13:31:05;;;;;;;;;;;16.90;96.30;;;;;;5033463;28;19963;-69
2021/06/19 13:33:31;;;;;;;;;;;16.90;96.50;;;;;;5033545;28;19956;-69
2021/06/19 13:35:56;;;;;;;;;;;16.90;96.60;;;;;;5032301;28;20230;-69
2021/06/19 13:38:22;;;;;;;;;;;17.00;96.50;;;;;;5033471;28;19921;-70
2021/06/19 13:40:47;;;;;;;;;;;17.10;96.40;;;;;;5031850;28;19930;-69
2021/06/19 13:43:13;;;;;;;;;;;17.10;96.70;;;;;;5032289;28;19930;-69
2021/06/19 13:45:38;;;;;;;;;;;17.10;96.50;;;;;;5033107;28;19992;-69
2021/06/19 13:48:04;;;;;;;;;;;17.30;96.80;;;;;;5033203;28;19972;-70
2021/06/19 13:50:31;;;;;;;;;;;17.60;96.70;;;;;;5033002;28;19933;-69
2021/06/19 13:52:56;;;;;;;;;;;17.90;95.70;;;;;;5033312;28;20011;-70
2021/06/19 13:55:26;;;;;;;;;;;18.10;95.50;;;;;;5033146;28;19972;-69
2021/06/19 13:57:51;;;;;;;;;;;18.20;96.00;;;;;;5031839;28;20078;-69
2021/06/19 14:00:17;;;;;;;;;;;18.30;95.00;;;;;;5032977;28;19968;-70
2021/06/19 14:02:43;;;;;;;;;;;18.40;94.90;;;;;;5033023;28;20394;-69
2021/06/19 14:05:08;;;;;;;;;;;18.60;94.70;;;;;;5032607;28;19954;-69
2021/06/19 14:07:34;;;;;;;;;;;18.70;94.30;;;;;;5032558;28;19929;-69
2021/06/19 14:10:00;;;;;;;;;;;18.90;94.60;;;;;;5031438;28;19973;-70
2021/06/19 14:12:25;;;;;;;;;;;19.10;94.30;;;;;;5032812;28;19926;-69
2021/06/19 14:14:51;;;;;;;;;;;19.40;93.70;;;;;;5031613;28;20221;-69